sensor_id;sensor_type;location;lat;lon;timestamp;temperature;humidity
64226;DHT22;50545;56.064;26.178;2022-09-06T00:00:25;7.10;99.90
64226;DHT22;50545;56.064;26.178;2022-09-06T00:02:54;7.10;99.90
64226;DHT22;50545;56.064;26.178;2022-09-06T00:05:21;7.10;99.90
64226;DHT22;50545;56.064;26.178;2022-09-06T00:07:49;7.10;99.90
64226;DHT22;50545;56.064;26.178;2022-09-06T00:10:16;7.10;99.90
64226;DHT22;50545;56.064;26.178;2022-09-06T00:12:43;7.10;99.90
64226;DHT22;50545;56.064;26.178;2022-09-06T00:15:11;7.10;99.90
64226;DHT22;50545;56.064;26.178;2022-09-06T00:17:38;7.10;99.90
64226;DHT22;50545;56.064;26.178;2022-09-06T00:20:06;7.10;99.90
64226;DHT22;50545;56.064;26.178;2022-09-06T00:22:37;7.00;99.90
64226;DHT22;50545;56.064;26.178;2022-09-06T00:25:06;7.00;99.90
64226;DHT22;50545;56.064;26.178;2022-09-06T00:27:33;7.00;99.90
64226;DHT22;50545;56.064;26.178;2022-09-06T00:30:01;6.90;99.90
64226;DHT22;50545;56.064;26.178;2022-09-06T00:32:31;6.90;99.90
64226;DHT22;50545;56.064;26.178;2022-09-06T00:34:58;6.90;99.90
64226;DHT22;50545;56.064;26.178;2022-09-06T00:37:26;6.80;99.90
64226;DHT22;50545;56.064;26.178;2022-09-06T00:39:53;6.80;99.90
64226;DHT22;50545;56.064;26.178;2022-09-06T00:42:20;6.80;99.90
64226;DHT22;50545;56.064;26.178;2022-09-06T00:44:49;6.80;99.90
64226;DHT22;50545;56.064;26.178;2022-09-06T00:47:16;6.80;99.90
64226;DHT22;50545;56.064;26.178;2022-09-06T00:49:47;6.80;99.90
64226;DHT22;50545;56.064;26.178;2022-09-06T00:52:17;6.70;99.90
64226;DHT22;50545;56.064;26.178;2022-09-06T00:54:46;6.70;99.90
64226;DHT22;50545;56.064;26.178;2022-09-06T00:57:15;6.70;99.90
64226;DHT22;50545;56.064;26.178;2022-09-06T00:59:45;6.70;99.90
64226;DHT22;50545;56.064;26.178;2022-09-06T01:02:13;6.70;99.90
64226;DHT22;50545;56.064;26.178;2022-09-06T01:04:42;6.70;99.90
64226;DHT22;50545;56.064;26.178;2022-09-06T01:16:15;6.70;99.90
64226;DHT22;50545;56.064;26.178;2022-09-06T01:19:09;6.70;99.90
64226;DHT22;50545;56.064;26.178;2022-09-06T01:22:00;6.70;99.90
64226;DHT22;50545;56.064;26.178;2022-09-06T01:30:19;6.70;99.90
64226;DHT22;50545;56.064;26.178;2022-09-06T01:35:20;6.70;99.90
64226;DHT22;50545;56.064;26.178;2022-09-06T01:37:51;6.60;99.90
64226;DHT22;50545;56.064;26.178;2022-09-06T01:40:18;6.60;99.90
64226;DHT22;50545;56.064;26.178;2022-09-06T01:42:48;6.60;99.90
64226;DHT22;50545;56.064;26.178;2022-09-06T02:00:13;6.60;99.90
64226;DHT22;50545;56.064;26.178;2022-09-06T02:07:58;6.60;99.90
64226;DHT22;50545;56.064;26.178;2022-09-06T02:10:32;6.60;99.90
64226;DHT22;50545;56.064;26.178;2022-09-06T02:13:04;6.60;99.90
64226;DHT22;50545;56.064;26.178;2022-09-06T02:15:37;6.60;99.90
64226;DHT22;50545;56.064;26.178;2022-09-06T02:18:10;6.70;99.90
64226;DHT22;50545;56.064;26.178;2022-09-06T02:20:44;6.70;99.90
64226;DHT22;50545;56.064;26.178;2022-09-06T02:23:14;6.70;99.90
64226;DHT22;50545;56.064;26.178;2022-09-06T02:25:49;6.70;99.90
64226;DHT22;50545;56.064;26.178;2022-09-06T02:28:17;6.70;99.90
64226;DHT22;50545;56.064;26.178;2022-09-06T02:30:48;6.70;99.90
64226;DHT22;50545;56.064;26.178;2022-09-06T02:33:19;6.70;99.90
64226;DHT22;50545;56.064;26.178;2022-09-06T02:35:50;6.70;99.90
64226;DHT22;50545;56.064;26.178;2022-09-06T02:38:20;6.70;99.90
64226;DHT22;50545;56.064;26.178;2022-09-06T02:40:51;6.70;99.90
64226;DHT22;50545;56.064;26.178;2022-09-06T02:43:20;6.70;99.90
64226;DHT22;50545;56.064;26.178;2022-09-06T02:45:47;6.70;99.90
64226;DHT22;50545;56.064;26.178;2022-09-06T02:48:15;6.70;99.90
64226;DHT22;50545;56.064;26.178;2022-09-06T02:50:43;6.70;99.90
64226;DHT22;50545;56.064;26.178;2022-09-06T02:53:12;6.70;99.90
64226;DHT22;50545;56.064;26.178;2022-09-06T02:55:40;6.70;99.90
64226;DHT22;50545;56.064;26.178;2022-09-06T02:58:09;6.70;99.90
64226;DHT22;50545;56.064;26.178;2022-09-06T03:00:37;6.70;99.90
64226;DHT22;50545;56.064;26.178;2022-09-06T03:03:05;6.70;99.90
64226;DHT22;50545;56.064;26.178;2022-09-06T03:05:32;6.70;99.90
64226;DHT22;50545;56.064;26.178;2022-09-06T03:07:59;6.70;99.90
64226;DHT22;50545;56.064;26.178;2022-09-06T03:10:27;6.70;99.90
64226;DHT22;50545;56.064;26.178;2022-09-06T03:12:54;6.70;99.90
64226;DHT22;50545;56.064;26.178;2022-09-06T03:15:21;6.70;99.90
64226;DHT22;50545;56.064;26.178;2022-09-06T03:17:49;6.70;99.90
64226;DHT22;50545;56.064;26.178;2022-09-06T03:20:16;6.70;99.90
64226;DHT22;50545;56.064;26.178;2022-09-06T03:22:43;6.70;99.90
64226;DHT22;50545;56.064;26.178;2022-09-06T03:25:11;6.70;99.90
64226;DHT22;50545;56.064;26.178;2022-09-06T03:27:38;6.70;99.90
64226;DHT22;50545;56.064;26.178;2022-09-06T03:30:06;6.70;99.90
64226;DHT22;50545;56.064;26.178;2022-09-06T03:32:33;6.70;99.90
64226;DHT22;50545;56.064;26.178;2022-09-06T03:35:01;6.80;99.90
64226;DHT22;50545;56.064;26.178;2022-09-06T03:37:28;6.80;99.90
64226;DHT22;50545;56.064;26.178;2022-09-06T03:39:56;6.80;99.90
64226;DHT22;50545;56.064;26.178;2022-09-06T03:42:23;6.80;99.90
64226;DHT22;50545;56.064;26.178;2022-09-06T03:44:52;6.80;99.90
64226;DHT22;50545;56.064;26.178;2022-09-06T03:47:19;6.80;99.90
64226;DHT22;50545;56.064;26.178;2022-09-06T03:49:47;6.80;99.90
64226;DHT22;50545;56.064;26.178;2022-09-06T03:52:15;6.80;99.90
64226;DHT22;50545;56.064;26.178;2022-09-06T03:54:42;6.80;99.90
64226;DHT22;50545;56.064;26.178;2022-09-06T03:57:09;6.80;99.90
64226;DHT22;50545;56.064;26.178;2022-09-06T03:59:37;6.90;99.90
64226;DHT22;50545;56.064;26.178;2022-09-06T04:02:04;6.90;99.90
64226;DHT22;50545;56.064;26.178;2022-09-06T04:04:32;6.90;99.90
64226;DHT22;50545;56.064;26.178;2022-09-06T04:06:59;6.90;99.90
64226;DHT22;50545;56.064;26.178;2022-09-06T04:09:27;6.90;99.90
64226;DHT22;50545;56.064;26.178;2022-09-06T04:11:54;7.00;99.90
64226;DHT22;50545;56.064;26.178;2022-09-06T04:14:22;7.00;99.90
64226;DHT22;50545;56.064;26.178;2022-09-06T04:16:49;7.00;99.90
64226;DHT22;50545;56.064;26.178;2022-09-06T04:19:16;7.10;99.90
64226;DHT22;50545;56.064;26.178;2022-09-06T04:21:43;7.10;99.90
64226;DHT22;50545;56.064;26.178;2022-09-06T04:24:11;7.10;99.90
64226;DHT22;50545;56.064;26.178;2022-09-06T04:26:38;7.10;99.90
64226;DHT22;50545;56.064;26.178;2022-09-06T04:29:06;7.10;99.90
64226;DHT22;50545;56.064;26.178;2022-09-06T04:31:33;7.10;99.90
64226;DHT22;50545;56.064;26.178;2022-09-06T04:34:00;7.10;99.90
64226;DHT22;50545;56.064;26.178;2022-09-06T04:36:28;7.20;99.90
64226;DHT22;50545;56.064;26.178;2022-09-06T04:38:55;7.20;99.90
64226;DHT22;50545;56.064;26.178;2022-09-06T04:41:23;7.20;99.90
64226;DHT22;50545;56.064;26.178;2022-09-06T04:43:50;7.30;99.90
64226;DHT22;50545;56.064;26.178;2022-09-06T04:46:28;7.30;99.90
64226;DHT22;50545;56.064;26.178;2022-09-06T04:48:57;7.40;99.90
64226;DHT22;50545;56.064;26.178;2022-09-06T04:51:24;7.40;99.90
64226;DHT22;50545;56.064;26.178;2022-09-06T04:53:51;7.50;99.90
64226;DHT22;50545;56.064;26.178;2022-09-06T04:56:21;7.50;99.90
64226;DHT22;50545;56.064;26.178;2022-09-06T04:58:50;7.50;99.90
64226;DHT22;50545;56.064;26.178;2022-09-06T05:01:17;7.60;99.90
64226;DHT22;50545;56.064;26.178;2022-09-06T05:03:46;7.60;99.90
64226;DHT22;50545;56.064;26.178;2022-09-06T05:06:22;7.60;99.90
64226;DHT22;50545;56.064;26.178;2022-09-06T05:08:49;7.50;99.90
64226;DHT22;50545;56.064;26.178;2022-09-06T05:11:17;7.50;99.90
64226;DHT22;50545;56.064;26.178;2022-09-06T05:13:45;7.50;99.90
64226;DHT22;50545;56.064;26.178;2022-09-06T05:16:13;7.50;99.90
64226;DHT22;50545;56.064;26.178;2022-09-06T05:18:41;7.40;99.90
64226;DHT22;50545;56.064;26.178;2022-09-06T05:21:08;7.40;99.90
64226;DHT22;50545;56.064;26.178;2022-09-06T05:23:36;7.40;99.90
64226;DHT22;50545;56.064;26.178;2022-09-06T05:26:03;7.50;99.90
64226;DHT22;50545;56.064;26.178;2022-09-06T05:28:32;7.50;99.90
64226;DHT22;50545;56.064;26.178;2022-09-06T05:31:22;7.50;99.90
64226;DHT22;50545;56.064;26.178;2022-09-06T05:33:51;7.60;99.90
64226;DHT22;50545;56.064;26.178;2022-09-06T05:36:20;7.60;99.90
64226;DHT22;50545;56.064;26.178;2022-09-06T05:38:50;7.60;99.90
64226;DHT22;50545;56.064;26.178;2022-09-06T05:41:17;7.70;99.90
64226;DHT22;50545;56.064;26.178;2022-09-06T05:43:45;7.80;99.90
64226;DHT22;50545;56.064;26.178;2022-09-06T05:46:13;8.00;99.90
64226;DHT22;50545;56.064;26.178;2022-09-06T05:48:40;8.10;99.90
64226;DHT22;50545;56.064;26.178;2022-09-06T05:51:11;8.20;99.90
64226;DHT22;50545;56.064;26.178;2022-09-06T05:53:41;8.30;99.90
64226;DHT22;50545;56.064;26.178;2022-09-06T05:56:10;8.50;99.90
64226;DHT22;50545;56.064;26.178;2022-09-06T05:58:38;8.60;99.90
64226;DHT22;50545;56.064;26.178;2022-09-06T06:01:28;8.70;99.90
64226;DHT22;50545;56.064;26.178;2022-09-06T06:04:00;8.80;99.90
64226;DHT22;50545;56.064;26.178;2022-09-06T06:06:32;9.00;99.90
64226;DHT22;50545;56.064;26.178;2022-09-06T06:09:00;9.10;99.90
64226;DHT22;50545;56.064;26.178;2022-09-06T06:11:29;9.20;99.90
64226;DHT22;50545;56.064;26.178;2022-09-06T06:13:57;9.30;99.90
64226;DHT22;50545;56.064;26.178;2022-09-06T06:16:25;9.40;99.90
64226;DHT22;50545;56.064;26.178;2022-09-06T06:18:52;9.40;99.90
64226;DHT22;50545;56.064;26.178;2022-09-06T06:21:21;9.40;99.90
64226;DHT22;50545;56.064;26.178;2022-09-06T06:23:50;9.40;99.90
64226;DHT22;50545;56.064;26.178;2022-09-06T06:26:18;9.30;99.90
64226;DHT22;50545;56.064;26.178;2022-09-06T06:28:46;9.30;99.90
64226;DHT22;50545;56.064;26.178;2022-09-06T06:31:15;9.30;99.90
64226;DHT22;50545;56.064;26.178;2022-09-06T06:33:42;9.30;99.90
64226;DHT22;50545;56.064;26.178;2022-09-06T06:38:44;9.40;99.90
64226;DHT22;50545;56.064;26.178;2022-09-06T06:41:14;9.50;99.90
64226;DHT22;50545;56.064;26.178;2022-09-06T06:43:41;9.60;99.90
64226;DHT22;50545;56.064;26.178;2022-09-06T06:46:14;9.60;99.90
64226;DHT22;50545;56.064;26.178;2022-09-06T06:48:43;9.80;99.90
64226;DHT22;50545;56.064;26.178;2022-09-06T06:51:13;9.90;99.90
64226;DHT22;50545;56.064;26.178;2022-09-06T06:53:42;10.00;99.90
64226;DHT22;50545;56.064;26.178;2022-09-06T06:56:24;10.10;99.90
64226;DHT22;50545;56.064;26.178;2022-09-06T06:58:54;10.20;99.90
64226;DHT22;50545;56.064;26.178;2022-09-06T07:01:24;10.30;99.90
64226;DHT22;50545;56.064;26.178;2022-09-06T07:03:53;10.40;99.90
64226;DHT22;50545;56.064;26.178;2022-09-06T07:06:21;10.50;99.90
64226;DHT22;50545;56.064;26.178;2022-09-06T07:09:09;10.60;99.90
64226;DHT22;50545;56.064;26.178;2022-09-06T07:11:36;10.70;99.90
64226;DHT22;50545;56.064;26.178;2022-09-06T07:14:04;10.80;99.90
64226;DHT22;50545;56.064;26.178;2022-09-06T07:16:31;10.90;99.90
64226;DHT22;50545;56.064;26.178;2022-09-06T07:18:59;11.10;99.90
64226;DHT22;50545;56.064;26.178;2022-09-06T07:21:26;11.20;99.90
64226;DHT22;50545;56.064;26.178;2022-09-06T07:24:11;11.30;98.10
64226;DHT22;50545;56.064;26.178;2022-09-06T07:26:39;11.30;99.90
64226;DHT22;50545;56.064;26.178;2022-09-06T07:29:07;11.40;99.90
64226;DHT22;50545;56.064;26.178;2022-09-06T07:31:36;11.40;99.90
64226;DHT22;50545;56.064;26.178;2022-09-06T07:34:24;11.40;99.90
64226;DHT22;50545;56.064;26.178;2022-09-06T07:36:53;11.50;99.20
64226;DHT22;50545;56.064;26.178;2022-09-06T07:39:20;11.60;97.30
64226;DHT22;50545;56.064;26.178;2022-09-06T07:41:48;11.60;97.10
64226;DHT22;50545;56.064;26.178;2022-09-06T07:44:15;11.60;92.60
64226;DHT22;50545;56.064;26.178;2022-09-06T07:46:42;11.70;97.50
64226;DHT22;50545;56.064;26.178;2022-09-06T07:49:10;11.70;93.70
64226;DHT22;50545;56.064;26.178;2022-09-06T07:51:38;11.70;91.30
64226;DHT22;50545;56.064;26.178;2022-09-06T07:54:05;11.70;94.00
64226;DHT22;50545;56.064;26.178;2022-09-06T07:56:53;11.70;90.30
64226;DHT22;50545;56.064;26.178;2022-09-06T07:59:21;11.70;90.70
64226;DHT22;50545;56.064;26.178;2022-09-06T08:01:48;11.70;91.50
64226;DHT22;50545;56.064;26.178;2022-09-06T08:04:16;11.70;90.20
64226;DHT22;50545;56.064;26.178;2022-09-06T08:06:46;11.80;91.40
64226;DHT22;50545;56.064;26.178;2022-09-06T08:09:34;11.80;89.30
64226;DHT22;50545;56.064;26.178;2022-09-06T08:12:03;11.90;84.70
64226;DHT22;50545;56.064;26.178;2022-09-06T08:14:34;11.90;81.80
64226;DHT22;50545;56.064;26.178;2022-09-06T08:17:02;12.00;85.10
64226;DHT22;50545;56.064;26.178;2022-09-06T08:19:29;12.10;86.50
64226;DHT22;50545;56.064;26.178;2022-09-06T08:21:56;12.20;86.10
64226;DHT22;50545;56.064;26.178;2022-09-06T08:24:23;12.20;81.70
64226;DHT22;50545;56.064;26.178;2022-09-06T08:26:51;12.30;80.40
64226;DHT22;50545;56.064;26.178;2022-09-06T08:29:18;12.30;83.70
64226;DHT22;50545;56.064;26.178;2022-09-06T08:31:48;12.30;82.70
64226;DHT22;50545;56.064;26.178;2022-09-06T08:34:15;12.40;91.10
64226;DHT22;50545;56.064;26.178;2022-09-06T08:36:43;12.40;82.40
64226;DHT22;50545;56.064;26.178;2022-09-06T08:39:11;12.50;80.40
64226;DHT22;50545;56.064;26.178;2022-09-06T08:42:00;12.60;82.10
64226;DHT22;50545;56.064;26.178;2022-09-06T08:44:47;12.70;79.40
64226;DHT22;50545;56.064;26.178;2022-09-06T08:47:20;13.00;80.30
64226;DHT22;50545;56.064;26.178;2022-09-06T08:49:51;13.30;81.30
64226;DHT22;50545;56.064;26.178;2022-09-06T08:52:37;13.60;84.50
64226;DHT22;50545;56.064;26.178;2022-09-06T08:55:36;13.70;73.80
64226;DHT22;50545;56.064;26.178;2022-09-06T09:00:37;14.00;76.20
64226;DHT22;50545;56.064;26.178;2022-09-06T09:03:15;14.10;74.40
64226;DHT22;50545;56.064;26.178;2022-09-06T09:05:47;14.00;69.20
64226;DHT22;50545;56.064;26.178;2022-09-06T09:08:44;14.00;67.90
64226;DHT22;50545;56.064;26.178;2022-09-06T09:11:17;13.80;61.90
64226;DHT22;50545;56.064;26.178;2022-09-06T09:14:00;13.70;64.00
64226;DHT22;50545;56.064;26.178;2022-09-06T09:16:29;13.60;66.20
64226;DHT22;50545;56.064;26.178;2022-09-06T09:19:02;13.70;69.20
64226;DHT22;50545;56.064;26.178;2022-09-06T09:21:36;13.70;63.00
64226;DHT22;50545;56.064;26.178;2022-09-06T09:24:06;13.70;62.80
64226;DHT22;50545;56.064;26.178;2022-09-06T09:27:11;13.50;62.50
64226;DHT22;50545;56.064;26.178;2022-09-06T09:32:43;13.40;67.70
64226;DHT22;50545;56.064;26.178;2022-09-06T09:35:16;13.60;66.30
64226;DHT22;50545;56.064;26.178;2022-09-06T09:37:44;13.80;64.40
64226;DHT22;50545;56.064;26.178;2022-09-06T09:40:28;13.80;62.10
64226;DHT22;50545;56.064;26.178;2022-09-06T09:45:42;13.70;59.50
64226;DHT22;50545;56.064;26.178;2022-09-06T09:48:26;13.50;62.00
64226;DHT22;50545;56.064;26.178;2022-09-06T09:50:54;13.50;63.70
64226;DHT22;50545;56.064;26.178;2022-09-06T09:53:22;13.40;63.70
64226;DHT22;50545;56.064;26.178;2022-09-06T09:55:56;13.30;63.30
64226;DHT22;50545;56.064;26.178;2022-09-06T09:58:38;13.30;64.20
64226;DHT22;50545;56.064;26.178;2022-09-06T10:01:17;13.40;61.70
64226;DHT22;50545;56.064;26.178;2022-09-06T10:03:46;13.30;61.60
64226;DHT22;50545;56.064;26.178;2022-09-06T10:06:34;13.40;62.10
64226;DHT22;50545;56.064;26.178;2022-09-06T10:09:31;13.40;62.00
64226;DHT22;50545;56.064;26.178;2022-09-06T10:11:59;13.50;63.80
64226;DHT22;50545;56.064;26.178;2022-09-06T10:14:30;13.50;60.20
64226;DHT22;50545;56.064;26.178;2022-09-06T10:16:58;13.60;59.90
64226;DHT22;50545;56.064;26.178;2022-09-06T10:19:41;13.70;58.70
64226;DHT22;50545;56.064;26.178;2022-09-06T10:22:29;14.00;59.00
64226;DHT22;50545;56.064;26.178;2022-09-06T10:33:46;14.40;59.70
64226;DHT22;50545;56.064;26.178;2022-09-06T10:36:19;14.20;58.80
64226;DHT22;50545;56.064;26.178;2022-09-06T10:48:27;13.50;63.70
64226;DHT22;50545;56.064;26.178;2022-09-06T10:59:30;13.30;63.60
64226;DHT22;50545;56.064;26.178;2022-09-06T11:02:34;13.30;62.70
64226;DHT22;50545;56.064;26.178;2022-09-06T11:05:10;13.40;63.30
64226;DHT22;50545;56.064;26.178;2022-09-06T11:08:02;13.50;64.90
64226;DHT22;50545;56.064;26.178;2022-09-06T11:10:51;13.70;66.60
64226;DHT22;50545;56.064;26.178;2022-09-06T11:13:20;13.80;62.70
64226;DHT22;50545;56.064;26.178;2022-09-06T11:15:56;14.00;62.10
64226;DHT22;50545;56.064;26.178;2022-09-06T11:24:21;14.00;61.30
64226;DHT22;50545;56.064;26.178;2022-09-06T11:27:53;13.90;61.20
64226;DHT22;50545;56.064;26.178;2022-09-06T11:30:02;13.90;61.10
64226;DHT22;50545;56.064;26.178;2022-09-06T11:35:19;14.20;59.10
64226;DHT22;50545;56.064;26.178;2022-09-06T11:38:00;14.20;59.60
64226;DHT22;50545;56.064;26.178;2022-09-06T11:40:29;14.30;63.30
64226;DHT22;50545;56.064;26.178;2022-09-06T11:45:55;14.20;56.30
64226;DHT22;50545;56.064;26.178;2022-09-06T11:53:22;14.30;55.90
64226;DHT22;50545;56.064;26.178;2022-09-06T12:06:37;16.10;52.70
64226;DHT22;50545;56.064;26.178;2022-09-06T12:11:55;16.20;53.40
64226;DHT22;50545;56.064;26.178;2022-09-06T12:14:37;16.00;52.80
64226;DHT22;50545;56.064;26.178;2022-09-06T12:27:34;15.10;51.70
64226;DHT22;50545;56.064;26.178;2022-09-06T12:30:35;15.10;53.60
64226;DHT22;50545;56.064;26.178;2022-09-06T12:33:29;15.30;52.40
64226;DHT22;50545;56.064;26.178;2022-09-06T12:38:54;15.30;53.90
64226;DHT22;50545;56.064;26.178;2022-09-06T12:41:26;15.60;52.30
64226;DHT22;50545;56.064;26.178;2022-09-06T12:43:54;15.80;54.90
64226;DHT22;50545;56.064;26.178;2022-09-06T12:46:25;15.90;51.40
64226;DHT22;50545;56.064;26.178;2022-09-06T12:51:27;15.50;51.50
64226;DHT22;50545;56.064;26.178;2022-09-06T12:54:01;15.30;52.30
64226;DHT22;50545;56.064;26.178;2022-09-06T12:56:31;15.30;54.70
64226;DHT22;50545;56.064;26.178;2022-09-06T12:59:20;15.20;52.90
64226;DHT22;50545;56.064;26.178;2022-09-06T13:01:56;15.20;53.90
64226;DHT22;50545;56.064;26.178;2022-09-06T13:04:35;15.00;52.30
64226;DHT22;50545;56.064;26.178;2022-09-06T13:07:12;15.10;54.20
64226;DHT22;50545;56.064;26.178;2022-09-06T13:09:42;15.60;58.10
64226;DHT22;50545;56.064;26.178;2022-09-06T13:12:41;16.10;53.20
64226;DHT22;50545;56.064;26.178;2022-09-06T13:15:15;16.50;49.70
64226;DHT22;50545;56.064;26.178;2022-09-06T13:17:43;16.50;52.70
64226;DHT22;50545;56.064;26.178;2022-09-06T13:20:26;16.50;51.30
64226;DHT22;50545;56.064;26.178;2022-09-06T13:23:07;16.10;50.40
64226;DHT22;50545;56.064;26.178;2022-09-06T13:25:47;15.90;51.60
64226;DHT22;50545;56.064;26.178;2022-09-06T13:28:32;16.00;51.50
64226;DHT22;50545;56.064;26.178;2022-09-06T13:31:19;16.30;52.40
64226;DHT22;50545;56.064;26.178;2022-09-06T13:33:59;16.70;50.60
64226;DHT22;50545;56.064;26.178;2022-09-06T13:36:30;16.90;48.90
64226;DHT22;50545;56.064;26.178;2022-09-06T13:38:59;16.80;48.10
64226;DHT22;50545;56.064;26.178;2022-09-06T13:46:25;16.80;48.10
64226;DHT22;50545;56.064;26.178;2022-09-06T13:48:53;16.80;46.30
64226;DHT22;50545;56.064;26.178;2022-09-06T13:51:21;16.70;47.70
64226;DHT22;50545;56.064;26.178;2022-09-06T13:53:49;16.70;48.80
64226;DHT22;50545;56.064;26.178;2022-09-06T13:56:16;16.80;47.80
64226;DHT22;50545;56.064;26.178;2022-09-06T13:58:44;16.80;48.80
64226;DHT22;50545;56.064;26.178;2022-09-06T14:01:11;17.00;49.20
64226;DHT22;50545;56.064;26.178;2022-09-06T14:03:40;17.10;47.30
64226;DHT22;50545;56.064;26.178;2022-09-06T14:06:09;17.20;49.30
64226;DHT22;50545;56.064;26.178;2022-09-06T14:08:36;17.30;48.80
64226;DHT22;50545;56.064;26.178;2022-09-06T14:11:25;17.40;48.40
64226;DHT22;50545;56.064;26.178;2022-09-06T14:13:52;17.20;46.90
64226;DHT22;50545;56.064;26.178;2022-09-06T14:16:20;16.60;46.70
64226;DHT22;50545;56.064;26.178;2022-09-06T14:18:47;15.90;49.00
64226;DHT22;50545;56.064;26.178;2022-09-06T14:21:14;15.50;49.40
64226;DHT22;50545;56.064;26.178;2022-09-06T14:23:46;15.30;50.00
64226;DHT22;50545;56.064;26.178;2022-09-06T14:26:13;15.10;51.50
64226;DHT22;50545;56.064;26.178;2022-09-06T14:28:41;15.10;52.70
64226;DHT22;50545;56.064;26.178;2022-09-06T14:31:17;15.00;52.00
64226;DHT22;50545;56.064;26.178;2022-09-06T14:33:44;14.90;52.50
64226;DHT22;50545;56.064;26.178;2022-09-06T14:36:14;14.80;51.80
64226;DHT22;50545;56.064;26.178;2022-09-06T14:38:43;14.70;54.90
64226;DHT22;50545;56.064;26.178;2022-09-06T14:41:12;14.70;54.50
64226;DHT22;50545;56.064;26.178;2022-09-06T14:43:41;14.60;54.40
64226;DHT22;50545;56.064;26.178;2022-09-06T14:46:13;14.50;55.00
64226;DHT22;50545;56.064;26.178;2022-09-06T14:48:41;14.50;54.50
64226;DHT22;50545;56.064;26.178;2022-09-06T14:51:12;14.40;54.00
64226;DHT22;50545;56.064;26.178;2022-09-06T14:53:41;14.40;53.90
64226;DHT22;50545;56.064;26.178;2022-09-06T14:56:10;14.40;54.70
64226;DHT22;50545;56.064;26.178;2022-09-06T14:58:38;14.10;54.50
64226;DHT22;50545;56.064;26.178;2022-09-06T15:01:12;14.00;55.60
64226;DHT22;50545;56.064;26.178;2022-09-06T15:03:41;13.70;56.70
64226;DHT22;50545;56.064;26.178;2022-09-06T15:06:09;13.70;58.70
64226;DHT22;50545;56.064;26.178;2022-09-06T15:08:37;13.60;59.30
64226;DHT22;50545;56.064;26.178;2022-09-06T15:11:05;13.70;59.60
64226;DHT22;50545;56.064;26.178;2022-09-06T15:13:34;13.80;59.50
64226;DHT22;50545;56.064;26.178;2022-09-06T15:16:06;13.90;58.90
64226;DHT22;50545;56.064;26.178;2022-09-06T15:18:34;14.10;57.60
64226;DHT22;50545;56.064;26.178;2022-09-06T15:21:10;14.30;60.30
64226;DHT22;50545;56.064;26.178;2022-09-06T15:23:37;14.60;60.10
64226;DHT22;50545;56.064;26.178;2022-09-06T15:26:06;14.80;59.60
64226;DHT22;50545;56.064;26.178;2022-09-06T15:28:38;15.20;55.70
64226;DHT22;50545;56.064;26.178;2022-09-06T15:31:06;15.50;54.60
64226;DHT22;50545;56.064;26.178;2022-09-06T15:33:36;15.90;53.10
64226;DHT22;50545;56.064;26.178;2022-09-06T15:36:04;16.20;54.10
64226;DHT22;50545;56.064;26.178;2022-09-06T15:38:33;16.50;52.10
64226;DHT22;50545;56.064;26.178;2022-09-06T15:41:11;16.50;51.60
64226;DHT22;50545;56.064;26.178;2022-09-06T15:43:41;16.40;51.40
64226;DHT22;50545;56.064;26.178;2022-09-06T15:46:11;16.40;50.80
64226;DHT22;50545;56.064;26.178;2022-09-06T15:48:44;16.50;52.80
64226;DHT22;50545;56.064;26.178;2022-09-06T15:51:16;16.70;50.90
64226;DHT22;50545;56.064;26.178;2022-09-06T15:53:44;16.80;51.40
64226;DHT22;50545;56.064;26.178;2022-09-06T15:56:16;17.10;52.60
64226;DHT22;50545;56.064;26.178;2022-09-06T15:58:44;17.30;49.60
64226;DHT22;50545;56.064;26.178;2022-09-06T16:01:14;17.50;50.40
64226;DHT22;50545;56.064;26.178;2022-09-06T16:03:44;17.60;49.90
64226;DHT22;50545;56.064;26.178;2022-09-06T16:06:20;17.70;49.50
64226;DHT22;50545;56.064;26.178;2022-09-06T16:08:55;17.90;50.90
64226;DHT22;50545;56.064;26.178;2022-09-06T16:11:25;18.10;50.30
64226;DHT22;50545;56.064;26.178;2022-09-06T16:13:53;18.10;48.20
64226;DHT22;50545;56.064;26.178;2022-09-06T16:16:21;18.00;49.70
64226;DHT22;50545;56.064;26.178;2022-09-06T16:18:49;17.90;50.70
64226;DHT22;50545;56.064;26.178;2022-09-06T16:23:50;17.20;53.00
64226;DHT22;50545;56.064;26.178;2022-09-06T16:26:19;16.70;54.20
64226;DHT22;50545;56.064;26.178;2022-09-06T16:28:50;16.30;54.80
64226;DHT22;50545;56.064;26.178;2022-09-06T16:31:19;15.90;55.50
64226;DHT22;50545;56.064;26.178;2022-09-06T16:33:48;15.50;56.50
64226;DHT22;50545;56.064;26.178;2022-09-06T16:36:17;15.20;57.70
64226;DHT22;50545;56.064;26.178;2022-09-06T16:38:45;14.80;58.90
64226;DHT22;50545;56.064;26.178;2022-09-06T16:41:17;14.50;60.50
64226;DHT22;50545;56.064;26.178;2022-09-06T16:43:45;14.10;61.10
64226;DHT22;50545;56.064;26.178;2022-09-06T16:46:13;13.80;62.10
64226;DHT22;50545;56.064;26.178;2022-09-06T16:48:41;13.50;63.00
64226;DHT22;50545;56.064;26.178;2022-09-06T16:51:18;13.30;64.00
64226;DHT22;50545;56.064;26.178;2022-09-06T16:53:47;13.00;65.30
64226;DHT22;50545;56.064;26.178;2022-09-06T16:56:19;12.80;66.20
64226;DHT22;50545;56.064;26.178;2022-09-06T16:58:50;12.50;67.70
64226;DHT22;50545;56.064;26.178;2022-09-06T17:01:20;12.30;69.10
64226;DHT22;50545;56.064;26.178;2022-09-06T17:03:48;12.10;70.50
64226;DHT22;50545;56.064;26.178;2022-09-06T17:06:16;11.90;71.60
64226;DHT22;50545;56.064;26.178;2022-09-06T17:08:44;11.70;72.20
64226;DHT22;50545;56.064;26.178;2022-09-06T17:11:15;11.50;73.30
64226;DHT22;50545;56.064;26.178;2022-09-06T17:13:44;11.40;74.20
64226;DHT22;50545;56.064;26.178;2022-09-06T17:16:12;11.20;75.00
64226;DHT22;50545;56.064;26.178;2022-09-06T17:18:59;11.00;76.00
64226;DHT22;50545;56.064;26.178;2022-09-06T17:21:28;10.90;76.70
64226;DHT22;50545;56.064;26.178;2022-09-06T17:23:56;10.70;77.20
64226;DHT22;50545;56.064;26.178;2022-09-06T17:26:30;10.60;77.90
64226;DHT22;50545;56.064;26.178;2022-09-06T17:28:59;10.50;79.00
64226;DHT22;50545;56.064;26.178;2022-09-06T17:31:26;10.40;80.70
64226;DHT22;50545;56.064;26.178;2022-09-06T17:33:54;10.30;81.50
64226;DHT22;50545;56.064;26.178;2022-09-06T17:36:27;10.20;82.20
64226;DHT22;50545;56.064;26.178;2022-09-06T17:39:06;10.10;83.00
64226;DHT22;50545;56.064;26.178;2022-09-06T17:41:37;10.00;84.30
64226;DHT22;50545;56.064;26.178;2022-09-06T17:44:06;9.90;85.60
64226;DHT22;50545;56.064;26.178;2022-09-06T17:46:34;9.70;89.20
64226;DHT22;50545;56.064;26.178;2022-09-06T17:49:01;9.70;88.70
64226;DHT22;50545;56.064;26.178;2022-09-06T17:51:29;9.60;89.30
64226;DHT22;50545;56.064;26.178;2022-09-06T17:53:58;9.50;90.10
64226;DHT22;50545;56.064;26.178;2022-09-06T17:56:26;9.50;90.40